Time;durP1;ratioP1;P1;durP2;ratioP2;P2;SDS_P1;SDS_P2;PMS_P1;PMS_P2;Temp;Humidity;BMP_temperature;BMP_pressure;BME280_temperature;BME280_humidity;BME280_pressure;Samples;Min_cycle;Max_cycle;Signal;HPM_P1;HPM_P2
2021/08/12 00:00:14;;;;;;;16.77;14.97;;;17.10;99.90;;;;;;5006306;28;20187;-77
2021/08/12 00:02:40;;;;;;;17.07;14.70;;;17.10;99.90;;;;;;5006648;28;20203;-78
2021/08/12 00:05:07;;;;;;;16.60;14.83;;;17.10;99.90;;;;;;5005763;28;20194;-78
2021/08/12 00:07:32;;;;;;;17.17;15.27;;;17.10;99.90;;;;;;5004968;28;20216;-78
2021/08/12 00:10:00;;;;;;;17.67;15.87;;;17.00;99.90;;;;;;5022295;28;20269;-78
2021/08/12 00:12:26;;;;;;;18.17;16.23;;;17.00;99.90;;;;;;5005417;28;20206;-78
2021/08/12 00:14:51;;;;;;;18.23;16.37;;;17.00;99.90;;;;;;5022299;28;20168;-78
2021/08/12 00:17:17;;;;;;;19.73;17.63;;;17.00;99.90;;;;;;5005509;28;20205;-78
2021/08/12 00:19:42;;;;;;;20.03;17.30;;;16.90;99.90;;;;;;5022313;28;20184;-78
2021/08/12 00:22:08;;;;;;;17.90;15.77;;;16.90;99.90;;;;;;5005821;28;20247;-78
2021/08/12 00:24:33;;;;;;;17.83;15.97;;;16.90;99.90;;;;;;5005836;28;20576;-78
2021/08/12 00:27:02;;;;;;;16.67;14.97;;;16.90;99.90;;;;;;5022035;28;20667;-78
2021/08/12 00:29:27;;;;;;;17.27;15.47;;;16.90;99.90;;;;;;5021832;28;20226;-78
2021/08/12 00:31:53;;;;;;;17.37;15.13;;;17.00;99.90;;;;;;5021601;28;20172;-78
2021/08/12 00:34:18;;;;;;;17.63;15.87;;;16.90;99.90;;;;;;5004777;28;20672;-78
2021/08/12 00:36:44;;;;;;;17.73;16.03;;;16.80;99.90;;;;;;5005188;28;20176;-78
2021/08/12 00:39:10;;;;;;;17.43;15.73;;;16.80;99.90;;;;;;5006148;28;20179;-78
2021/08/12 00:41:38;;;;;;;17.07;15.17;;;16.80;99.90;;;;;;5021720;28;20168;-78
2021/08/12 00:44:03;;;;;;;19.27;16.03;;;16.80;99.90;;;;;;5003367;28;20671;-78
2021/08/12 00:46:29;;;;;;;16.90;15.10;;;16.70;99.90;;;;;;5003287;28;20300;-78
2021/08/12 00:48:55;;;;;;;19.80;16.10;;;16.70;99.90;;;;;;5004199;28;20262;-78
2021/08/12 00:51:20;;;;;;;17.60;15.60;;;16.70;99.90;;;;;;5019914;28;20176;-78
2021/08/12 00:53:46;;;;;;;17.83;15.93;;;16.60;99.90;;;;;;5020135;28;20212;-78
2021/08/12 00:56:11;;;;;;;17.10;15.40;;;16.60;99.90;;;;;;5020481;28;20179;-78
2021/08/12 00:58:37;;;;;;;17.10;15.40;;;16.60;99.90;;;;;;5003407;28;20274;-78
2021/08/12 01:01:03;;;;;;;17.27;15.53;;;16.70;99.90;;;;;;5003515;28;20179;-78
2021/08/12 01:03:28;;;;;;;17.17;15.37;;;16.60;99.90;;;;;;5003097;28;20206;-78
2021/08/12 01:05:57;;;;;;;16.73;14.93;;;16.60;99.90;;;;;;5003985;28;20187;-78
2021/08/12 01:08:35;;;;;;;17.17;15.47;;;16.50;99.90;;;;;;5019799;28;20211;-78
2021/08/12 01:11:25;;;;;;;17.57;15.63;;;16.50;99.90;;;;;;5020794;28;20188;-78
2021/08/12 01:14:22;;;;;;;18.93;16.37;;;16.50;99.90;;;;;;5021032;28;20203;-78
2021/08/12 01:17:08;;;;;;;16.47;14.73;;;16.50;99.90;;;;;;5023265;28;20262;-78
2021/08/12 01:20:00;;;;;;;17.43;15.63;;;16.40;99.90;;;;;;5007469;28;20606;-78
2021/08/12 01:22:25;;;;;;;18.40;15.70;;;16.40;99.90;;;;;;5024022;28;20200;-78
2021/08/12 01:24:54;;;;;;;16.60;14.90;;;16.40;99.90;;;;;;5009748;28;20242;-78
2021/08/12 01:27:19;;;;;;;17.07;15.27;;;16.40;99.90;;;;;;5007166;28;20207;-78
2021/08/12 01:30:08;;;;;;;18.00;15.67;;;16.30;99.90;;;;;;5006409;28;20186;-78
2021/08/12 01:32:39;;;;;;;17.47;15.77;;;16.30;99.90;;;;;;5005029;28;20210;-79
2021/08/12 01:35:09;;;;;;;17.03;15.43;;;16.20;99.90;;;;;;5021970;28;20191;-78
2021/08/12 01:37:38;;;;;;;18.33;14.80;;;16.20;99.90;;;;;;5005418;28;20326;-78
2021/08/12 01:40:05;;;;;;;16.20;14.50;;;16.20;99.90;;;;;;5004141;28;20184;-78
2021/08/12 01:42:31;;;;;;;17.73;15.93;;;16.20;99.90;;;;;;5004362;28;20898;-77
2021/08/12 01:44:57;;;;;;;17.10;15.30;;;16.20;99.90;;;;;;5003685;28;20274;-78
2021/08/12 01:47:24;;;;;;;17.63;15.77;;;16.10;99.90;;;;;;5023897;28;20217;-78
2021/08/12 01:49:50;;;;;;;17.17;15.47;;;16.10;99.90;;;;;;5008718;28;20183;-78
2021/08/12 01:52:16;;;;;;;17.63;15.93;;;16.10;99.90;;;;;;5008911;28;20215;-78
2021/08/12 01:54:43;;;;;;;17.73;15.87;;;16.00;99.90;;;;;;5024946;28;20170;-78
2021/08/12 01:57:09;;;;;;;18.17;16.27;;;16.10;99.90;;;;;;5008054;28;20710;-78
2021/08/12 01:59:34;;;;;;;17.47;15.87;;;16.10;99.90;;;;;;5023881;28;20172;-78
2021/08/12 02:02:00;;;;;;;17.67;15.67;;;16.00;99.90;;;;;;5008647;28;20180;-78
2021/08/12 02:04:26;;;;;;;18.50;16.63;;;16.00;99.90;;;;;;5006931;28;20210;-78
2021/08/12 02:06:51;;;;;;;20.47;16.43;;;15.90;99.90;;;;;;5023589;28;20207;-78
2021/08/12 02:09:17;;;;;;;17.80;16.00;;;15.90;99.90;;;;;;5007365;28;20186;-78
2021/08/12 02:11:43;;;;;;;17.13;15.43;;;15.90;99.90;;;;;;5023956;28;20188;-78
2021/08/12 02:14:09;;;;;;;18.03;16.13;;;15.90;99.90;;;;;;5007446;28;20226;-78
2021/08/12 02:16:34;;;;;;;19.43;16.20;;;15.90;99.90;;;;;;5023227;28;20195;-78
2021/08/12 02:19:00;;;;;;;17.80;16.00;;;15.90;99.90;;;;;;5023978;28;20172;-78
2021/08/12 02:21:37;;;;;;;17.87;16.07;;;15.80;99.90;;;;;;5007683;28;20176;-78
2021/08/12 02:24:08;;;;;;;17.87;15.53;;;15.80;99.90;;;;;;5024178;28;20599;-78
2021/08/12 02:26:36;;;;;;;19.13;17.23;;;15.80;99.90;;;;;;5022649;28;20327;-78
2021/08/12 02:29:02;;;;;;;18.80;16.80;;;15.70;99.90;;;;;;5006259;28;20233;-78
2021/08/12 02:31:27;;;;;;;17.87;16.07;;;15.70;99.90;;;;;;5023019;28;20176;-78
2021/08/12 02:33:53;;;;;;;18.07;16.10;;;15.80;99.90;;;;;;5007040;28;20199;-77
2021/08/12 02:36:18;;;;;;;18.00;16.10;;;15.70;99.90;;;;;;5023188;28;20187;-78
2021/08/12 02:38:44;;;;;;;19.43;17.23;;;15.70;99.90;;;;;;5027150;28;20171;-78
2021/08/12 02:41:13;;;;;;;20.77;18.70;;;15.70;99.90;;;;;;5027398;28;20198;-78
2021/08/12 02:43:40;;;;;;;17.70;16.00;;;15.70;99.90;;;;;;5011099;28;20230;-78
2021/08/12 02:46:05;;;;;;;18.33;16.53;;;15.70;99.90;;;;;;5025818;28;20241;-78
2021/08/12 02:48:31;;;;;;;18.90;16.77;;;15.70;99.90;;;;;;5006696;28;20253;-78
2021/08/12 02:50:57;;;;;;;18.53;16.73;;;15.60;99.90;;;;;;5023374;28;20263;-78
2021/08/12 02:53:23;;;;;;;19.73;17.73;;;15.70;99.90;;;;;;5005064;28;20272;-78
2021/08/12 02:55:48;;;;;;;22.77;19.17;;;15.60;99.90;;;;;;5006394;28;20583;-78
2021/08/12 02:58:14;;;;;;;21.53;19.43;;;15.50;99.90;;;;;;5021547;28;20190;-78
2021/08/12 03:00:40;;;;;;;22.37;20.07;;;15.50;99.90;;;;;;5005840;28;20245;-78
2021/08/12 03:03:05;;;;;;;21.50;19.20;;;15.50;99.90;;;;;;5005735;28;20203;-78
2021/08/12 03:05:33;;;;;;;21.20;18.70;;;15.60;99.90;;;;;;5005462;28;20187;-78
2021/08/12 03:07:59;;;;;;;21.67;19.47;;;15.50;99.90;;;;;;5019794;28;20227;-78
2021/08/12 03:10:24;;;;;;;22.70;20.03;;;15.50;99.90;;;;;;5019481;28;20661;-78
2021/08/12 03:12:51;;;;;;;24.80;22.30;;;15.50;99.90;;;;;;5019085;28;20286;-78
2021/08/12 03:15:16;;;;;;;26.57;22.17;;;15.40;99.90;;;;;;5003782;28;20223;-78
2021/08/12 03:17:42;;;;;;;24.47;21.87;;;15.40;99.90;;;;;;5003593;28;20219;-78
2021/08/12 03:20:08;;;;;;;26.40;23.70;;;15.40;99.90;;;;;;5020829;28;20190;-77
2021/08/12 03:22:33;;;;;;;23.93;21.43;;;15.40;99.90;;;;;;5003485;28;20686;-78
2021/08/12 03:24:59;;;;;;;26.00;23.30;;;15.40;99.90;;;;;;5018753;28;20226;-78
2021/08/12 03:27:25;;;;;;;25.63;21.60;;;15.40;99.90;;;;;;5019342;28;20207;-78
2021/08/12 03:29:51;;;;;;;24.03;21.43;;;15.50;99.90;;;;;;5002026;28;20281;-78
2021/08/12 03:32:20;;;;;;;23.57;20.93;;;15.40;99.90;;;;;;5002374;28;20199;-78
2021/08/12 03:34:45;;;;;;;23.50;20.87;;;15.40;99.90;;;;;;5018611;28;20156;-78
2021/08/12 03:37:11;;;;;;;23.47;21.07;;;15.40;99.90;;;;;;5019101;28;20268;-77
2021/08/12 03:39:37;;;;;;;21.17;19.03;;;15.50;99.90;;;;;;5018855;28;20239;-78
2021/08/12 03:42:02;;;;;;;20.97;18.77;;;15.40;99.90;;;;;;5019026;28;20190;-78
2021/08/12 03:44:28;;;;;;;22.67;20.27;;;15.40;99.90;;;;;;5016961;28;20713;-78
2021/08/12 03:46:54;;;;;;;21.50;19.20;;;15.30;99.90;;;;;;5000817;28;20216;-78
2021/08/12 03:49:19;;;;;;;21.13;18.73;;;15.30;99.90;;;;;;5001581;28;20233;-78
2021/08/12 03:51:45;;;;;;;22.03;19.73;;;15.30;99.90;;;;;;5002871;28;20202;-78
2021/08/12 03:54:10;;;;;;;19.80;17.90;;;15.30;99.90;;;;;;4998068;28;20597;-79
2021/08/12 03:56:36;;;;;;;19.40;17.50;;;15.20;99.90;;;;;;4987845;28;20678;-79
2021/08/12 03:59:02;;;;;;;19.90;17.80;;;15.20;99.90;;;;;;4978497;28;20199;-79
2021/08/12 04:01:29;;;;;;;20.57;18.47;;;15.10;99.90;;;;;;4965892;28;20192;-79
2021/08/12 04:03:55;;;;;;;22.53;20.13;;;15.20;99.90;;;;;;4982279;28;20212;-79
2021/08/12 04:06:21;;;;;;;21.90;19.70;;;15.10;99.90;;;;;;4979084;28;20195;-79
2021/08/12 04:08:46;;;;;;;23.03;20.37;;;15.10;99.90;;;;;;4977288;28;20234;-79
2021/08/12 04:11:12;;;;;;;23.53;21.13;;;15.20;99.90;;;;;;4993398;28;20169;-79
2021/08/12 04:13:37;;;;;;;24.87;22.20;;;15.30;99.90;;;;;;4993527;28;20710;-79
2021/08/12 04:16:03;;;;;;;25.10;22.50;;;15.30;99.90;;;;;;4993400;28;20553;-79
2021/08/12 04:18:29;;;;;;;25.70;23.00;;;15.20;99.90;;;;;;4993525;28;20682;-79
2021/08/12 04:20:54;;;;;;;27.07;24.37;;;15.30;99.90;;;;;;4970277;28;20181;-79
2021/08/12 04:23:20;;;;;;;28.43;25.30;;;15.20;99.90;;;;;;4958897;28;20207;-79
2021/08/12 04:25:46;;;;;;;24.80;22.17;;;15.20;99.90;;;;;;4980533;28;20270;-79
2021/08/12 04:28:11;;;;;;;25.87;23.20;;;15.20;99.90;;;;;;4973627;28;20579;-79
2021/08/12 04:30:37;;;;;;;26.67;23.87;;;15.30;99.90;;;;;;4973439;28;20184;-81
2021/08/12 04:33:02;;;;;;;24.60;22.13;;;15.30;99.90;;;;;;4957874;28;20200;-78
2021/08/12 04:35:28;;;;;;;24.97;22.33;;;15.30;99.90;;;;;;4957669;28;20267;-78
2021/08/12 04:37:53;;;;;;;25.60;22.93;;;15.30;99.90;;;;;;4973591;28;20180;-78
2021/08/12 04:40:19;;;;;;;27.00;24.00;;;15.30;99.90;;;;;;4973385;28;20181;-79
2021/08/12 04:42:49;;;;;;;26.97;23.10;;;15.30;99.90;;;;;;4957367;28;20251;-78
2021/08/12 04:45:19;;;;;;;25.40;22.80;;;15.30;99.90;;;;;;4957702;28;20239;-78
2021/08/12 04:47:44;;;;;;;27.03;24.00;;;15.30;99.90;;;;;;4972868;28;20258;-78
2021/08/12 04:50:10;;;;;;;25.07;22.47;;;15.30;99.90;;;;;;4956427;28;20549;-78
2021/08/12 04:52:36;;;;;;;25.70;23.17;;;15.30;99.90;;;;;;4956591;28;20719;-77
2021/08/12 04:55:02;;;;;;;25.67;22.20;;;15.30;99.90;;;;;;4956912;28;20441;-78
2021/08/12 04:57:28;;;;;;;26.70;23.83;;;15.30;99.90;;;;;;4957162;28;20220;-78
2021/08/12 04:59:53;;;;;;;29.27;24.30;;;15.30;99.90;;;;;;4957858;28;20571;-77
2021/08/12 05:02:19;;;;;;;26.77;24.03;;;15.30;99.90;;;;;;4958625;28;20316;-78
2021/08/12 05:04:44;;;;;;;26.43;23.50;;;15.40;99.90;;;;;;4956911;28;20181;-77
2021/08/12 05:07:10;;;;;;;27.10;23.00;;;15.40;99.90;;;;;;4987934;28;20211;-76
2021/08/12 05:09:35;;;;;;;25.20;22.50;;;15.40;99.90;;;;;;4991600;28;20176;-77
2021/08/12 05:12:01;;;;;;;23.87;21.40;;;15.40;99.90;;;;;;4991821;28;20188;-76
2021/08/12 05:14:27;;;;;;;23.67;21.17;;;15.40;99.90;;;;;;4975467;28;20180;-76
2021/08/12 05:16:52;;;;;;;23.33;20.93;;;15.50;99.90;;;;;;4991705;28;20203;-76
2021/08/12 05:19:18;;;;;;;23.77;20.90;;;15.50;99.90;;;;;;4991373;28;20212;-76
2021/08/12 05:21:43;;;;;;;24.27;21.77;;;15.60;99.90;;;;;;4975078;28;20235;-76
2021/08/12 05:24:09;;;;;;;25.23;22.67;;;15.60;99.90;;;;;;4991674;28;20204;-75
2021/08/12 05:26:35;;;;;;;26.03;22.77;;;15.60;99.90;;;;;;4978917;28;20185;-76
2021/08/12 05:29:00;;;;;;;25.60;22.40;;;15.80;99.90;;;;;;4972242;28;20586;-76
2021/08/12 05:31:26;;;;;;;28.70;25.63;;;15.90;99.90;;;;;;4973479;28;20182;-76
2021/08/12 05:33:51;;;;;;;26.17;23.50;;;15.80;99.90;;;;;;4971947;28;20820;-76
2021/08/12 05:36:17;;;;;;;28.53;25.27;;;15.80;99.90;;;;;;4972992;28;20175;-77
2021/08/12 05:38:43;;;;;;;28.50;25.43;;;15.90;99.90;;;;;;4973789;28;20210;-77
2021/08/12 05:41:08;;;;;;;29.90;25.40;;;15.90;99.90;;;;;;4972373;28;20185;-78
2021/08/12 05:43:34;;;;;;;27.97;24.97;;;16.10;99.90;;;;;;4971993;28;20707;-77
2021/08/12 05:46:00;;;;;;;30.97;24.80;;;16.30;99.90;;;;;;4972425;28;20661;-78
2021/08/12 05:48:25;;;;;;;28.37;25.30;;;16.30;99.90;;;;;;4971996;28;20570;-78
2021/08/12 05:50:51;;;;;;;30.40;25.17;;;16.50;99.90;;;;;;4956138;28;20668;-79
2021/08/12 05:53:17;;;;;;;27.83;24.83;;;16.60;99.90;;;;;;4972469;28;20219;-79
2021/08/12 05:55:43;;;;;;;28.20;25.30;;;16.70;99.90;;;;;;4956351;28;20187;-79
2021/08/12 05:58:08;;;;;;;25.87;23.07;;;17.00;99.90;;;;;;4972905;28;20271;-78
2021/08/12 06:00:34;;;;;;;26.57;23.40;;;17.50;99.90;;;;;;4955698;28;20172;-78
2021/08/12 06:03:10;;;;;;;24.77;22.27;;;17.90;99.90;;;;;;4972112;28;20256;-78
2021/08/12 06:05:35;;;;;;;24.30;21.77;;;18.40;99.90;;;;;;4955806;28;20648;-78
2021/08/12 06:08:02;;;;;;;24.43;20.77;;;18.70;99.90;;;;;;4972144;28;20201;-78
2021/08/12 06:10:28;;;;;;;23.80;21.33;;;18.90;99.90;;;;;;4971929;28;20173;-78
2021/08/12 06:12:54;;;;;;;22.37;20.17;;;19.00;99.90;;;;;;4955833;28;20201;-78
2021/08/12 06:15:19;;;;;;;23.23;20.00;;;19.10;99.90;;;;;;4955962;28;20177;-78
2021/08/12 06:17:45;;;;;;;20.60;18.40;;;19.10;99.90;;;;;;4971994;28;20185;-79
2021/08/12 06:20:11;;;;;;;21.67;19.47;;;19.30;99.90;;;;;;4972405;28;20186;-78
2021/08/12 06:22:37;;;;;;;23.20;20.17;;;19.30;99.90;;;;;;4978075;28;20196;-79
2021/08/12 06:25:03;;;;;;;24.73;21.23;;;19.30;99.90;;;;;;4957708;28;20204;-78
2021/08/12 06:27:29;;;;;;;23.53;21.07;;;19.30;99.90;;;;;;4972450;28;20204;-78
2021/08/12 06:29:54;;;;;;;22.13;19.83;;;19.40;99.90;;;;;;4957838;28;20181;-80
2021/08/12 06:32:23;;;;;;;23.43;20.93;;;19.60;99.90;;;;;;4964847;28;20220;-80
2021/08/12 06:34:49;;;;;;;22.80;20.40;;;19.70;99.90;;;;;;4969274;28;20184;-81
2021/08/12 06:37:14;;;;;;;23.60;20.93;;;19.90;99.90;;;;;;4992001;28;20180;-80
2021/08/12 06:39:46;;;;;;;23.67;20.57;;;20.00;99.90;;;;;;4969295;28;20184;-79
2021/08/12 06:42:17;;;;;;;24.03;20.80;;;20.20;99.90;;;;;;4992376;28;20208;-80
2021/08/12 06:44:42;;;;;;;22.03;19.60;;;20.30;99.90;;;;;;4981788;28;20283;-78
2021/08/12 06:47:08;;;;;;;24.00;20.20;;;20.60;99.90;;;;;;4993027;28;20684;-80
2021/08/12 06:49:33;;;;;;;23.57;19.50;;;20.80;99.90;;;;;;4991822;28;20745;-79
2021/08/12 06:51:59;;;;;;;24.57;20.00;;;21.00;99.90;;;;;;4959852;28;20173;-79
2021/08/12 06:54:24;;;;;;;22.13;19.73;;;21.10;99.90;;;;;;4979573;28;20267;-79
2021/08/12 06:56:50;;;;;;;22.37;20.07;;;21.40;99.90;;;;;;4985533;28;20180;-79
2021/08/12 06:59:15;;;;;;;23.27;19.53;;;21.30;99.90;;;;;;4995092;28;20180;-79
2021/08/12 07:01:41;;;;;;;23.43;20.37;;;21.50;99.90;;;;;;4992246;28;20187;-79
2021/08/12 07:04:06;;;;;;;21.73;19.53;;;21.60;99.90;;;;;;4997295;28;20734;-79
2021/08/12 07:06:32;;;;;;;21.73;19.37;;;22.00;99.90;;;;;;4995777;28;20193;-79
2021/08/12 07:08:58;;;;;;;20.97;18.43;;;22.20;99.90;;;;;;4986414;28;20659;-80
2021/08/12 07:11:23;;;;;;;19.77;17.77;;;22.60;99.90;;;;;;5012151;28;20215;-79
2021/08/12 07:13:49;;;;;;;19.83;17.83;;;23.10;99.90;;;;;;4992983;28;20572;-79
2021/08/12 07:16:15;;;;;;;20.60;18.42;;;23.60;99.90;;;;;;5008409;28;20600;-79
2021/08/12 07:18:42;;;;;;;19.55;17.48;;;23.80;99.90;;;;;;4999502;28;20274;-80
2021/08/12 07:21:17;;;;;;;19.52;17.42;;;23.80;99.90;;;;;;4995091;28;20176;-79
2021/08/12 07:23:43;;;;;;;19.38;17.30;;;24.20;99.90;;;;;;4992091;28;20346;-79
2021/08/12 07:26:12;;;;;;;18.83;16.83;;;25.00;99.90;;;;;;5012140;28;20203;-79
2021/08/12 07:28:41;;;;;;;18.02;16.13;;;25.60;99.90;;;;;;5011061;28;20279;-80
2021/08/12 07:31:11;;;;;;;17.45;15.65;;;25.90;99.90;;;;;;4987798;28;20179;-79
2021/08/12 07:33:37;;;;;;;16.55;14.60;;;25.70;99.90;;;;;;5011226;28;20561;-79
2021/08/12 07:36:03;;;;;;;17.55;15.30;;;25.20;99.90;;;;;;4994612;28;20677;-80
2021/08/12 07:38:29;;;;;;;17.10;14.90;;;25.00;99.90;;;;;;4978781;28;20181;-79
2021/08/12 07:40:56;;;;;;;14.93;13.30;;;24.60;99.90;;;;;;4985404;28;20203;-80
2021/08/12 07:43:21;;;;;;;14.95;13.18;;;24.40;99.90;;;;;;4993792;28;20737;-80
2021/08/12 07:45:47;;;;;;;16.38;14.13;;;24.30;99.90;;;;;;4992761;28;20179;-79
2021/08/12 07:48:14;;;;;;;16.10;13.10;;;24.30;99.90;;;;;;4998532;28;20779;-79
2021/08/12 07:50:39;;;;;;;15.68;13.75;;;24.20;99.90;;;;;;4997574;28;20180;-79
2021/08/12 07:53:05;;;;;;;16.58;13.60;;;24.40;99.90;;;;;;5013591;28;20713;-79
2021/08/12 07:55:31;;;;;;;16.90;14.05;;;24.50;99.90;;;;;;5011571;28;20673;-79
2021/08/12 07:57:57;;;;;;;16.08;13.68;;;24.60;99.90;;;;;;4995089;28;20223;-79
2021/08/12 08:00:23;;;;;;;15.73;12.82;;;24.80;99.90;;;;;;4996470;28;20180;-79
2021/08/12 08:02:48;;;;;;;12.88;11.60;;;24.90;99.90;;;;;;4990299;28;20211;-78
2021/08/12 08:05:21;;;;;;;13.38;10.88;;;24.70;99.90;;;;;;4974897;28;20177;-78
2021/08/12 08:07:50;;;;;;;13.23;11.13;;;24.60;99.90;;;;;;4978111;28;20220;-78
2021/08/12 08:10:19;;;;;;;13.63;10.80;;;24.70;99.90;;;;;;4998521;28;20205;-78
2021/08/12 08:12:45;;;;;;;15.48;11.25;;;24.70;99.90;;;;;;5019490;28;20200;-78
2021/08/12 08:15:11;;;;;;;14.93;11.25;;;24.80;99.90;;;;;;5028618;28;20194;-77
2021/08/12 08:17:37;;;;;;;10.93;9.38;;;25.00;99.90;;;;;;5005936;28;20184;-78
2021/08/12 08:20:04;;;;;;;10.43;9.32;;;25.10;99.90;;;;;;4986335;28;20188;-78
2021/08/12 08:22:29;;;;;;;12.77;10.20;;;25.10;99.90;;;;;;5004919;28;20208;-78
2021/08/12 08:24:55;;;;;;;12.10;10.38;;;25.10;99.90;;;;;;4988331;28;20195;-78
2021/08/12 08:27:20;;;;;;;11.30;10.00;;;25.30;99.90;;;;;;5005403;28;20196;-77
2021/08/12 08:29:46;;;;;;;12.35;10.35;;;25.20;99.90;;;;;;5006043;28;20179;-77
2021/08/12 08:32:11;;;;;;;13.98;10.48;;;25.20;99.90;;;;;;4998949;28;20660;-78
2021/08/12 08:34:37;;;;;;;11.43;10.23;;;25.30;99.90;;;;;;5003333;28;20173;-78
2021/08/12 08:37:02;;;;;;;12.15;10.40;;;25.40;99.90;;;;;;5002954;28;20266;-77
2021/08/12 08:39:28;;;;;;;13.38;10.43;;;25.70;99.90;;;;;;5003705;28;20208;-78
2021/08/12 08:41:54;;;;;;;14.90;11.57;;;25.60;99.90;;;;;;4999655;28;20181;-78
2021/08/12 08:44:21;;;;;;;16.38;11.68;;;25.50;99.90;;;;;;4999322;28;20196;-78
2021/08/12 08:46:47;;;;;;;12.18;10.50;;;25.60;99.90;;;;;;5000735;28;20192;-78
2021/08/12 08:49:12;;;;;;;14.25;11.70;;;25.50;99.90;;;;;;4983945;28;20177;-78
2021/08/12 08:51:38;;;;;;;14.43;12.70;;;25.50;99.90;;;;;;5013084;28;20186;-78
2021/08/12 08:54:04;;;;;;;16.40;12.80;;;25.50;99.90;;;;;;5004872;28;20211;-77
2021/08/12 08:56:29;;;;;;;14.38;12.30;;;25.30;99.90;;;;;;4983542;28;20207;-78
2021/08/12 08:58:55;;;;;;;15.68;12.13;;;25.40;99.90;;;;;;4999561;28;20177;-77
2021/08/12 09:01:20;;;;;;;15.30;12.38;;;25.40;99.90;;;;;;4983906;28;20176;-78
2021/08/12 09:03:46;;;;;;;15.20;12.35;;;25.50;99.90;;;;;;4984524;28;20196;-78
2021/08/12 09:06:13;;;;;;;14.25;12.07;;;25.50;99.90;;;;;;5003380;28;20211;-77
2021/08/12 09:08:38;;;;;;;16.17;12.30;;;25.60;99.90;;;;;;4999382;28;20223;-78
2021/08/12 09:11:04;;;;;;;15.82;10.95;;;25.60;99.90;;;;;;4997732;28;20196;-78
2021/08/12 09:13:30;;;;;;;15.55;11.45;;;25.50;99.90;;;;;;4984259;28;20207;-77
2021/08/12 09:15:55;;;;;;;15.35;12.30;;;25.50;99.90;;;;;;5000518;28;20168;-77
2021/08/12 09:18:27;;;;;;;16.20;12.40;;;25.60;99.90;;;;;;5000033;28;20275;-78
2021/08/12 09:20:55;;;;;;;17.50;13.20;;;25.80;99.90;;;;;;4981730;28;20656;-77
2021/08/12 09:23:30;;;;;;;18.20;12.80;;;25.70;99.90;;;;;;4999003;28;20212;-78
2021/08/12 09:25:56;;;;;;;17.95;11.90;;;25.60;99.90;;;;;;5003979;28;20183;-78
2021/08/12 09:28:29;;;;;;;15.00;11.65;;;25.60;99.90;;;;;;4984497;28;20291;-78
2021/08/12 09:31:01;;;;;;;15.57;12.13;;;25.70;99.90;;;;;;4999220;28;20671;-78
2021/08/12 09:33:28;;;;;;;15.02;11.63;;;25.70;99.90;;;;;;4998288;28;20733;-77
2021/08/12 09:35:54;;;;;;;13.32;10.38;;;25.50;99.90;;;;;;4991259;28;20626;-77
2021/08/12 09:38:19;;;;;;;14.25;10.80;;;25.60;99.90;;;;;;4975738;28;20176;-77
2021/08/12 09:40:51;;;;;;;14.38;10.65;;;25.70;99.90;;;;;;4974156;28;20901;-77
2021/08/12 09:43:17;;;;;;;15.23;11.10;;;25.80;99.90;;;;;;4979312;28;20198;-77
2021/08/12 09:45:42;;;;;;;15.02;10.57;;;25.90;99.90;;;;;;4975132;28;20625;-78
2021/08/12 09:48:15;;;;;;;15.55;11.00;;;26.00;99.90;;;;;;4974644;28;20572;-78
2021/08/12 09:50:45;;;;;;;15.80;10.98;;;26.10;99.90;;;;;;4998628;28;20631;-80
2021/08/12 09:53:18;;;;;;;14.25;10.70;;;26.00;99.90;;;;;;4997096;28;20208;-77
2021/08/12 09:55:44;;;;;;;17.17;9.82;;;25.80;99.90;;;;;;4992155;28;20196;-78
2021/08/12 09:58:10;;;;;;;14.10;10.50;;;25.70;99.90;;;;;;4992225;28;20200;-78
2021/08/12 10:00:42;;;;;;;14.02;9.90;;;25.70;99.90;;;;;;4991928;28;20173;-78
2021/08/12 10:03:27;;;;;;;12.98;9.50;;;25.70;99.90;;;;;;4992146;28;20196;-78
2021/08/12 10:05:55;;;;;;;11.80;9.40;;;25.80;99.90;;;;;;4992042;28;20177;-78
2021/08/12 10:08:33;;;;;;;10.32;8.55;;;25.90;99.90;;;;;;4995019;28;20196;-77
2021/08/12 10:11:16;;;;;;;10.88;7.95;;;26.00;99.90;;;;;;5011591;28;20180;-78
2021/08/12 10:13:42;;;;;;;10.30;8.02;;;26.20;99.90;;;;;;4995704;28;20188;-78
2021/08/12 10:16:08;;;;;;;11.55;9.13;;;26.30;99.90;;;;;;4995470;28;20263;-77
2021/08/12 10:18:33;;;;;;;11.35;8.98;;;26.40;99.90;;;;;;4979242;28;20180;-77
2021/08/12 10:20:59;;;;;;;10.18;8.18;;;26.50;99.90;;;;;;4995701;28;20180;-78
2021/08/12 10:23:24;;;;;;;11.57;7.90;;;26.50;99.90;;;;;;4995565;28;20196;-78
2021/08/12 10:25:52;;;;;;;11.00;8.20;;;26.60;99.90;;;;;;4992782;28;20211;-78
2021/08/12 10:28:18;;;;;;;9.13;7.40;;;26.40;99.90;;;;;;4997088;28;20616;-78
2021/08/12 10:30:43;;;;;;;10.05;8.05;;;26.40;99.90;;;;;;4978413;28;20180;-78
2021/08/12 10:33:09;;;;;;;8.18;7.28;;;26.60;99.90;;;;;;4995032;28;20283;-78
2021/08/12 10:35:38;;;;;;;9.02;7.13;;;26.60;99.90;;;;;;4995180;28;20184;-78
2021/08/12 10:38:04;;;;;;;10.60;7.40;;;26.70;99.90;;;;;;4993046;28;20173;-77
2021/08/12 10:40:31;;;;;;;13.07;7.85;;;26.80;99.90;;;;;;4995299;28;20203;-81
2021/08/12 10:42:57;;;;;;;8.98;7.55;;;26.90;99.90;;;;;;4981651;28;20223;-78
2021/08/12 10:45:24;;;;;;;9.98;7.30;;;26.90;99.90;;;;;;5000078;28;20238;-83
2021/08/12 10:47:56;;;;;;;8.38;6.32;;;27.00;99.90;;;;;;5000131;28;20241;-79
2021/08/12 10:50:31;;;;;;;8.25;6.47;;;26.90;99.90;;;;;;5000332;28;20163;-80
2021/08/12 10:53:10;;;;;;;7.45;6.25;;;26.90;99.90;;;;;;5004268;28;20200;-81
2021/08/12 10:56:05;;;;;;;7.88;6.10;;;26.90;99.90;;;;;;5002181;28;20176;-81
2021/08/12 10:58:32;;;;;;;7.20;6.45;;;27.00;99.90;;;;;;5018142;28;20169;-82
2021/08/12 11:01:01;;;;;;;8.02;6.43;;;27.00;99.90;;;;;;5002759;28;20259;-82
2021/08/12 11:03:33;;;;;;;8.63;6.47;;;26.80;99.90;;;;;;4985154;28;20222;-82
2021/08/12 11:06:41;;;;;;;9.63;7.13;;;26.80;99.90;;;;;;5001954;28;20652;-81
2021/08/12 11:09:08;;;;;;;8.82;6.15;;;26.80;99.90;;;;;;4978386;28;20213;-81
2021/08/12 11:11:33;;;;;;;8.80;7.13;;;26.70;99.90;;;;;;4995510;28;20185;-80
2021/08/12 11:14:03;;;;;;;9.95;7.25;;;26.80;99.90;;;;;;5002083;28;20256;-80
2021/08/12 11:16:49;;;;;;;7.10;5.90;;;26.70;99.90;;;;;;4999767;28;20644;-79
2021/08/12 11:19:21;;;;;;;7.07;5.68;;;26.50;99.90;;;;;;4998891;28;20187;-81
2021/08/12 11:21:47;;;;;;;7.35;4.90;;;26.50;99.90;;;;;;5000492;28;20187;-80
2021/08/12 11:24:25;;;;;;;8.82;6.05;;;26.60;99.90;;;;;;4997583;28;20208;-80
2021/08/12 11:26:50;;;;;;;7.38;5.80;;;26.80;99.90;;;;;;4997741;28;20691;-80
2021/08/12 11:29:22;;;;;;;7.85;5.30;;;26.80;99.90;;;;;;4998246;28;20319;-80
2021/08/12 11:31:48;;;;;;;9.48;4.15;;;26.90;99.90;;;;;;4998726;28;20211;-79
2021/08/12 11:34:21;;;;;;;5.45;4.57;;;27.00;99.90;;;;;;4998439;28;20207;-80
2021/08/12 11:37:06;;;;;;;6.68;4.53;;;26.90;99.90;;;;;;5003081;28;20529;-83
2021/08/12 11:39:32;;;;;;;7.70;5.45;;;27.00;99.90;;;;;;5000511;28;20231;-80
2021/08/12 11:41:59;;;;;;;6.82;5.22;;;27.00;99.90;;;;;;4998593;28;20177;-77
2021/08/12 11:44:24;;;;;;;7.45;4.20;;;26.90;99.90;;;;;;4997126;28;20771;-82
2021/08/12 11:46:50;;;;;;;7.43;4.90;;;26.90;99.90;;;;;;4979448;28;20226;-78
2021/08/12 11:49:17;;;;;;;17.92;6.50;;;27.00;99.90;;;;;;4978880;28;20651;-78
2021/08/12 11:51:43;;;;;;;9.10;4.20;;;27.10;99.90;;;;;;4979357;28;20176;-80
2021/08/12 11:54:09;;;;;;;8.00;4.97;;;27.10;99.90;;;;;;4978657;28;20307;-78
2021/08/12 11:56:37;;;;;;;5.78;4.00;;;27.20;99.90;;;;;;4995291;28;20177;-79
2021/08/12 11:59:02;;;;;;;6.55;4.03;;;27.20;99.90;;;;;;4979106;28;20200;-79
2021/08/12 12:01:32;;;;;;;6.72;4.65;;;27.00;99.90;;;;;;4995204;28;20211;-79
2021/08/12 12:04:03;;;;;;;6.05;4.53;;;27.10;99.90;;;;;;4995029;28;20721;-79
2021/08/12 12:06:38;;;;;;;5.63;4.00;;;26.90;99.90;;;;;;4978707;28;20223;-79
2021/08/12 12:09:27;;;;;;;8.57;4.13;;;26.80;99.90;;;;;;4994967;28;20176;-78
2021/08/12 12:11:57;;;;;;;5.68;4.10;;;26.90;99.90;;;;;;4985135;28;20184;-79
2021/08/12 12:14:25;;;;;;;7.47;4.03;;;27.00;99.90;;;;;;4994197;28;20161;-79
2021/08/12 12:17:16;;;;;;;4.85;4.07;;;27.00;99.90;;;;;;4994016;28;20195;-79
2021/08/12 12:20:03;;;;;;;5.45;4.03;;;27.00;99.90;;;;;;4994262;28;20175;-80
2021/08/12 12:22:30;;;;;;;4.78;3.85;;;27.00;99.90;;;;;;4993356;28;20219;-79
2021/08/12 12:24:59;;;;;;;6.78;3.70;;;27.10;99.90;;;;;;4977819;28;20666;-80
2021/08/12 12:27:24;;;;;;;6.30;3.60;;;27.20;99.90;;;;;;4978277;28;20207;-79
2021/08/12 12:29:50;;;;;;;4.82;3.42;;;27.30;99.90;;;;;;4977423;28;20656;-80
2021/08/12 12:32:16;;;;;;;5.72;3.58;;;27.40;99.90;;;;;;4993791;28;20192;-80